sensor_id;sensor_type;location;lat;lon;timestamp;pressure;altitude;pressure_sealevel;temperature;humidity
33496;BME280;19836;55.812;37.560;2023-07-20T16:41:00;98405.72;;;21.33;43.76
33496;BME280;19836;55.812;37.560;2023-07-20T16:43:26;98405.00;;;21.21;43.92
33496;BME280;19836;55.812;37.560;2023-07-20T16:46:01;98407.31;;;21.16;44.41
33496;BME280;19836;55.812;37.560;2023-07-20T16:48:28;98399.72;;;21.10;44.43
33496;BME280;19836;55.812;37.560;2023-07-20T16:50:54;98405.44;;;21.07;44.77
33496;BME280;19836;55.812;37.560;2023-07-20T16:53:20;98406.44;;;21.06;44.92
33496;BME280;19836;55.812;37.560;2023-07-20T16:55:49;98403.31;;;21.01;45.30
33496;BME280;19836;55.812;37.560;2023-07-20T16:58:18;98414.63;;;20.97;45.47
33496;BME280;19836;55.812;37.560;2023-07-20T17:00:46;98413.06;;;20.94;45.67
33496;BME280;19836;55.812;37.560;2023-07-20T17:03:13;98416.28;;;20.88;45.89
33496;BME280;19836;55.812;37.560;2023-07-20T17:05:41;98418.31;;;20.86;46.11
33496;BME280;19836;55.812;37.560;2023-07-20T17:08:07;98412.56;;;20.80;46.41
33496;BME280;19836;55.812;37.560;2023-07-20T17:10:33;98432.06;;;20.75;46.33
33496;BME280;19836;55.812;37.560;2023-07-20T17:13:00;98428.78;;;20.72;46.51
33496;BME280;19836;55.812;37.560;2023-07-20T17:15:27;98436.50;;;20.67;46.71
33496;BME280;19836;55.812;37.560;2023-07-20T17:17:53;98436.63;;;20.65;47.07
33496;BME280;19836;55.812;37.560;2023-07-20T17:20:19;98441.34;;;20.63;46.70
33496;BME280;19836;55.812;37.560;2023-07-20T17:22:46;98441.91;;;20.57;47.11
33496;BME280;19836;55.812;37.560;2023-07-20T17:25:12;98449.50;;;20.54;47.57
33496;BME280;19836;55.812;37.560;2023-07-20T17:27:38;98448.19;;;20.48;47.39
33496;BME280;19836;55.812;37.560;2023-07-20T17:30:07;98455.94;;;20.43;47.83
33496;BME280;19836;55.812;37.560;2023-07-20T17:32:35;98449.44;;;20.35;48.00
33496;BME280;19836;55.812;37.560;2023-07-20T17:35:01;98455.56;;;20.27;48.17
33496;BME280;19836;55.812;37.560;2023-07-20T17:37:32;98458.13;;;20.19;48.51
33496;BME280;19836;55.812;37.560;2023-07-20T17:40:06;98460.84;;;20.19;48.58
33496;BME280;19836;55.812;37.560;2023-07-20T17:42:36;98465.53;;;20.17;48.67
33496;BME280;19836;55.812;37.560;2023-07-20T17:45:02;98456.47;;;20.07;49.35
33496;BME280;19836;55.812;37.560;2023-07-20T17:47:32;98453.56;;;19.99;49.56
33496;BME280;19836;55.812;37.560;2023-07-20T17:49:58;98445.34;;;19.90;50.32
33496;BME280;19836;55.812;37.560;2023-07-20T17:52:24;98458.75;;;19.82;50.72
33496;BME280;19836;55.812;37.560;2023-07-20T17:54:50;98460.44;;;19.73;50.88
33496;BME280;19836;55.812;37.560;2023-07-20T17:57:16;98461.34;;;19.63;51.41
33496;BME280;19836;55.812;37.560;2023-07-20T17:59:42;98460.31;;;19.54;51.89
33496;BME280;19836;55.812;37.560;2023-07-20T18:02:08;98463.81;;;19.45;52.26
33496;BME280;19836;55.812;37.560;2023-07-20T18:04:34;98464.22;;;19.41;52.46
33496;BME280;19836;55.812;37.560;2023-07-20T18:07:00;98463.88;;;19.34;52.82
33496;BME280;19836;55.812;37.560;2023-07-20T18:09:26;98461.88;;;19.36;52.57
33496;BME280;19836;55.812;37.560;2023-07-20T18:11:54;98466.97;;;19.30;53.01
33496;BME280;19836;55.812;37.560;2023-07-20T18:14:20;98470.09;;;19.25;53.67
33496;BME280;19836;55.812;37.560;2023-07-20T18:16:46;98465.28;;;19.18;53.78
33496;BME280;19836;55.812;37.560;2023-07-20T18:19:12;98467.66;;;19.11;54.17
33496;BME280;19836;55.812;37.560;2023-07-20T18:21:38;98462.97;;;19.02;54.58
33496;BME280;19836;55.812;37.560;2023-07-20T18:24:05;98470.94;;;18.94;54.95
33496;BME280;19836;55.812;37.560;2023-07-20T18:26:31;98459.31;;;18.92;54.82
33496;BME280;19836;55.812;37.560;2023-07-20T18:28:58;98454.03;;;18.91;55.29
33496;BME280;19836;55.812;37.560;2023-07-20T18:31:24;98453.28;;;18.89;55.45
33496;BME280;19836;55.812;37.560;2023-07-20T18:33:50;98455.66;;;18.82;55.99
33496;BME280;19836;55.812;37.560;2023-07-20T18:36:16;98461.88;;;18.73;56.45
33496;BME280;19836;55.812;37.560;2023-07-20T18:38:42;98450.91;;;18.64;56.72
33496;BME280;19836;55.812;37.560;2023-07-20T18:41:08;98452.28;;;18.58;57.29
33496;BME280;19836;55.812;37.560;2023-07-20T18:43:34;98448.34;;;18.51;57.22
33496;BME280;19836;55.812;37.560;2023-07-20T18:46:02;98452.44;;;18.46;57.53
33496;BME280;19836;55.812;37.560;2023-07-20T18:48:28;98447.50;;;18.40;57.73
33496;BME280;19836;55.812;37.560;2023-07-20T18:50:54;98441.75;;;18.33;57.87
33496;BME280;19836;55.812;37.560;2023-07-20T18:53:20;98442.94;;;18.29;58.19
33496;BME280;19836;55.812;37.560;2023-07-20T18:55:46;98443.44;;;18.23;58.20
33496;BME280;19836;55.812;37.560;2023-07-20T18:58:12;98448.63;;;18.15;58.89
33496;BME280;19836;55.812;37.560;2023-07-20T19:00:38;98439.28;;;18.08;58.85
33496;BME280;19836;55.812;37.560;2023-07-20T19:03:04;98442.44;;;18.02;58.90
33496;BME280;19836;55.812;37.560;2023-07-20T19:05:31;98442.59;;;18.01;59.43
33496;BME280;19836;55.812;37.560;2023-07-20T19:07:57;98441.22;;;17.95;59.54
33496;BME280;19836;55.812;37.560;2023-07-20T19:10:25;98442.34;;;17.93;60.00
33496;BME280;19836;55.812;37.560;2023-07-20T19:12:55;98440.84;;;17.89;60.14
33496;BME280;19836;55.812;37.560;2023-07-20T19:15:21;98449.25;;;17.86;60.19
33496;BME280;19836;55.812;37.560;2023-07-20T19:17:47;98453.91;;;17.84;60.35
33496;BME280;19836;55.812;37.560;2023-07-20T19:20:13;98451.59;;;17.79;60.39
33496;BME280;19836;55.812;37.560;2023-07-20T19:22:43;98458.84;;;17.79;60.73
33496;BME280;19836;55.812;37.560;2023-07-20T19:25:09;98450.09;;;17.75;61.11
33496;BME280;19836;55.812;37.560;2023-07-20T19:27:38;98455.63;;;17.74;61.32
33496;BME280;19836;55.812;37.560;2023-07-20T19:30:05;98455.63;;;17.74;61.19
33496;BME280;19836;55.812;37.560;2023-07-20T19:32:32;98453.78;;;17.74;60.74
33496;BME280;19836;55.812;37.560;2023-07-20T19:34:58;98455.28;;;17.78;60.72
33496;BME280;19836;55.812;37.560;2023-07-20T19:37:31;98456.13;;;17.79;60.74
33496;BME280;19836;55.812;37.560;2023-07-20T19:39:57;98450.97;;;17.76;61.37
33496;BME280;19836;55.812;37.560;2023-07-20T19:42:23;98457.50;;;17.73;61.49
33496;BME280;19836;55.812;37.560;2023-07-20T19:44:49;98452.41;;;17.69;61.74
33496;BME280;19836;55.812;37.560;2023-07-20T19:47:16;98451.69;;;17.67;61.82
33496;BME280;19836;55.812;37.560;2023-07-20T19:49:43;98458.94;;;17.66;61.98
33496;BME280;19836;55.812;37.560;2023-07-20T19:52:09;98450.19;;;17.63;62.32
33496;BME280;19836;55.812;37.560;2023-07-20T19:54:35;98450.47;;;17.60;62.14
33496;BME280;19836;55.812;37.560;2023-07-20T19:57:01;98456.72;;;17.60;62.17
33496;BME280;19836;55.812;37.560;2023-07-20T19:59:28;98455.22;;;17.56;62.47
33496;BME280;19836;55.812;37.560;2023-07-20T20:01:54;98460.91;;;17.53;62.34
33496;BME280;19836;55.812;37.560;2023-07-20T20:04:23;98469.16;;;17.52;62.48
33496;BME280;19836;55.812;37.560;2023-07-20T20:06:50;98468.16;;;17.53;62.11
33496;BME280;19836;55.812;37.560;2023-07-20T20:09:17;98474.44;;;17.53;62.19
33496;BME280;19836;55.812;37.560;2023-07-20T20:11:44;98466.31;;;17.53;62.19
33496;BME280;19836;55.812;37.560;2023-07-20T20:14:13;98477.88;;;17.55;62.04
33496;BME280;19836;55.812;37.560;2023-07-20T20:16:40;98478.28;;;17.62;61.35
33496;BME280;19836;55.812;37.560;2023-07-20T20:19:06;98482.97;;;17.71;60.48
33496;BME280;19836;55.812;37.560;2023-07-20T20:21:33;98483.09;;;17.69;60.15
33496;BME280;19836;55.812;37.560;2023-07-20T20:24:02;98480.50;;;17.68;60.24
33496;BME280;19836;55.812;37.560;2023-07-20T20:26:29;98481.50;;;17.67;59.88
33496;BME280;19836;55.812;37.560;2023-07-20T20:28:55;98478.16;;;17.63;59.64
33496;BME280;19836;55.812;37.560;2023-07-20T20:31:21;98478.16;;;17.63;59.34
33496;BME280;19836;55.812;37.560;2023-07-20T20:33:47;98478.41;;;17.60;59.57
33496;BME280;19836;55.812;37.560;2023-07-20T20:36:17;98489.22;;;17.60;59.44
33496;BME280;19836;55.812;37.560;2023-07-20T20:38:47;98481.38;;;17.57;59.67
33496;BME280;19836;55.812;37.560;2023-07-20T20:41:13;98477.78;;;17.57;60.17
33496;BME280;19836;55.812;37.560;2023-07-20T20:43:39;98478.00;;;17.54;61.00
33496;BME280;19836;55.812;37.560;2023-07-20T20:46:06;98494.41;;;17.52;61.41
33496;BME280;19836;55.812;37.560;2023-07-20T20:48:37;98482.22;;;17.58;60.48
33496;BME280;19836;55.812;37.560;2023-07-20T20:51:05;98492.94;;;17.59;60.82
33496;BME280;19836;55.812;37.560;2023-07-20T20:53:31;98486.91;;;17.56;60.92
33496;BME280;19836;55.812;37.560;2023-07-20T20:55:58;98496.84;;;17.55;60.30
33496;BME280;19836;55.812;37.560;2023-07-20T20:58:27;98496.00;;;17.55;60.15
33496;BME280;19836;55.812;37.560;2023-07-20T21:00:53;98492.53;;;17.53;61.21
33496;BME280;19836;55.812;37.560;2023-07-20T21:03:19;98487.38;;;17.50;60.88
33496;BME280;19836;55.812;37.560;2023-07-20T21:05:46;98492.16;;;17.46;60.80
33496;BME280;19836;55.812;37.560;2023-07-20T21:08:11;98489.22;;;17.49;60.56
33496;BME280;19836;55.812;37.560;2023-07-20T21:10:43;98499.53;;;17.44;61.05
33496;BME280;19836;55.812;37.560;2023-07-20T21:13:13;98497.50;;;17.35;61.27
33496;BME280;19836;55.812;37.560;2023-07-20T21:15:39;98498.09;;;17.28;61.05
33496;BME280;19836;55.812;37.560;2023-07-20T21:18:06;98502.66;;;17.27;61.14
33496;BME280;19836;55.812;37.560;2023-07-20T21:20:32;98507.19;;;17.27;60.95
33496;BME280;19836;55.812;37.560;2023-07-20T21:22:59;98505.59;;;17.24;60.77
33496;BME280;19836;55.812;37.560;2023-07-20T21:25:28;98511.75;;;17.26;60.71
33496;BME280;19836;55.812;37.560;2023-07-20T21:27:56;98507.31;;;17.25;60.91
33496;BME280;19836;55.812;37.560;2023-07-20T21:30:23;98508.06;;;17.27;60.58
33496;BME280;19836;55.812;37.560;2023-07-20T21:32:54;98508.59;;;17.32;60.51
33496;BME280;19836;55.812;37.560;2023-07-20T21:35:20;98503.97;;;17.22;60.42
33496;BME280;19836;55.812;37.560;2023-07-20T21:37:47;98508.38;;;17.12;60.87
33496;BME280;19836;55.812;37.560;2023-07-20T21:40:13;98507.63;;;17.10;60.73
33496;BME280;19836;55.812;37.560;2023-07-20T21:42:40;98502.97;;;17.12;60.84
33496;BME280;19836;55.812;37.560;2023-07-20T21:45:07;98507.28;;;17.14;60.51
33496;BME280;19836;55.812;37.560;2023-07-20T21:47:34;98510.09;;;17.13;60.51
33496;BME280;19836;55.812;37.560;2023-07-20T21:50:00;98509.47;;;17.09;60.25
33496;BME280;19836;55.812;37.560;2023-07-20T21:52:26;98509.69;;;17.06;60.27
33496;BME280;19836;55.812;37.560;2023-07-20T21:54:52;98509.34;;;17.11;60.07
33496;BME280;19836;55.812;37.560;2023-07-20T21:57:19;98519.19;;;17.12;59.80
33496;BME280;19836;55.812;37.560;2023-07-20T21:59:45;98524.72;;;17.10;60.46
33496;BME280;19836;55.812;37.560;2023-07-20T22:02:12;98528.53;;;17.08;60.30
33496;BME280;19836;55.812;37.560;2023-07-20T22:04:44;98522.25;;;17.07;60.31
33496;BME280;19836;55.812;37.560;2023-07-20T22:07:14;98519.41;;;17.09;59.81
33496;BME280;19836;55.812;37.560;2023-07-20T22:09:40;98527.44;;;17.10;59.56
33496;BME280;19836;55.812;37.560;2023-07-20T22:12:10;98522.25;;;17.07;59.83
33496;BME280;19836;55.812;37.560;2023-07-20T22:14:39;98524.31;;;17.04;60.36
33496;BME280;19836;55.812;37.560;2023-07-20T22:17:06;98520.97;;;17.00;60.27
33496;BME280;19836;55.812;37.560;2023-07-20T22:19:36;98519.38;;;16.98;60.46
33496;BME280;19836;55.812;37.560;2023-07-20T22:22:03;98526.38;;;17.00;60.43
33496;BME280;19836;55.812;37.560;2023-07-20T22:24:35;98520.97;;;17.00;60.41
33496;BME280;19836;55.812;37.560;2023-07-20T22:27:03;98525.41;;;17.01;60.34
33496;BME280;19836;55.812;37.560;2023-07-20T22:29:29;98522.19;;;16.96;60.45
33496;BME280;19836;55.812;37.560;2023-07-20T22:32:03;98526.13;;;16.92;60.63
33496;BME280;19836;55.812;37.560;2023-07-20T22:34:30;98520.72;;;16.92;60.49
33496;BME280;19836;55.812;37.560;2023-07-20T22:36:59;98519.09;;;16.90;60.61
33496;BME280;19836;55.812;37.560;2023-07-20T22:39:25;98516.50;;;16.88;60.83
33496;BME280;19836;55.812;37.560;2023-07-20T22:41:52;98514.78;;;16.87;60.76
33496;BME280;19836;55.812;37.560;2023-07-20T22:44:20;98523.84;;;16.86;60.79
33496;BME280;19836;55.812;37.560;2023-07-20T22:46:51;98519.53;;;16.84;60.68
33496;BME280;19836;55.812;37.560;2023-07-20T22:49:17;98529.72;;;16.80;61.04
33496;BME280;19836;55.812;37.560;2023-07-20T22:51:43;98527.66;;;16.84;61.06
33496;BME280;19836;55.812;37.560;2023-07-20T22:54:10;98520.88;;;16.78;61.24
33496;BME280;19836;55.812;37.560;2023-07-20T22:56:37;98530.19;;;16.74;61.66
33496;BME280;19836;55.812;37.560;2023-07-20T22:59:03;98517.00;;;16.70;61.70
33496;BME280;19836;55.812;37.560;2023-07-20T23:01:33;98519.81;;;16.68;61.68
33496;BME280;19836;55.812;37.560;2023-07-20T23:03:59;98520.81;;;16.67;61.98
33496;BME280;19836;55.812;37.560;2023-07-20T23:06:25;98518.31;;;16.64;62.23
33496;BME280;19836;55.812;37.560;2023-07-20T23:08:51;98520.38;;;16.61;62.13
33496;BME280;19836;55.812;37.560;2023-07-20T23:11:18;98522.47;;;16.57;62.18
33496;BME280;19836;55.812;37.560;2023-07-20T23:13:44;98518.16;;;16.55;62.65
33496;BME280;19836;55.812;37.560;2023-07-20T23:16:10;98510.59;;;16.47;63.12
33496;BME280;19836;55.812;37.560;2023-07-20T23:18:36;98516.44;;;16.41;63.32
33496;BME280;19836;55.812;37.560;2023-07-20T23:21:03;98513.16;;;16.36;63.47
33496;BME280;19836;55.812;37.560;2023-07-20T23:23:29;98512.53;;;16.33;63.93
33496;BME280;19836;55.812;37.560;2023-07-20T23:25:56;98520.09;;;16.28;64.17
33496;BME280;19836;55.812;37.560;2023-07-20T23:28:22;98517.75;;;16.23;64.61
33496;BME280;19836;55.812;37.560;2023-07-20T23:30:49;98517.97;;;16.20;64.73
33496;BME280;19836;55.812;37.560;2023-07-20T23:33:16;98519.03;;;16.18;65.09
33496;BME280;19836;55.812;37.560;2023-07-20T23:35:43;98510.28;;;16.14;65.45
33496;BME280;19836;55.812;37.560;2023-07-20T23:38:09;98511.28;;;16.13;65.09
33496;BME280;19836;55.812;37.560;2023-07-20T23:40:37;98510.63;;;16.10;65.38
33496;BME280;19836;55.812;37.560;2023-07-20T23:43:03;98519.69;;;16.09;65.73
33496;BME280;19836;55.812;37.560;2023-07-20T23:45:29;98512.81;;;16.05;65.83
33496;BME280;19836;55.812;37.560;2023-07-20T23:47:55;98513.22;;;15.99;66.00
33496;BME280;19836;55.812;37.560;2023-07-20T23:50:21;98502.66;;;15.96;66.58
33496;BME280;19836;55.812;37.560;2023-07-20T23:52:48;98503.72;;;15.93;66.71
33496;BME280;19836;55.812;37.560;2023-07-20T23:55:14;98504.72;;;15.92;66.77
33496;BME280;19836;55.812;37.560;2023-07-20T23:57:44;98514.75;;;15.90;66.67
